sensor_id;sensor_type;location;lat;lon;timestamp;pressure;altitude;pressure_sealevel;temperature;humidity
7297;BME280;40758;54.038;11.684;2023-08-06T00:00:44;100741.78;;;13.15;100.00
7297;BME280;40758;54.038;11.684;2023-08-06T00:03:11;100745.25;;;13.22;100.00
7297;BME280;40758;54.038;11.684;2023-08-06T00:05:41;100739.06;;;13.15;100.00
7297;BME280;40758;54.038;11.684;2023-08-06T00:08:08;100730.19;;;13.08;100.00
7297;BME280;40758;54.038;11.684;2023-08-06T00:10:39;100736.47;;;13.08;100.00
7297;BME280;40758;54.038;11.684;2023-08-06T00:13:06;100730.69;;;13.04;100.00
7297;BME280;40758;54.038;11.684;2023-08-06T00:15:33;100742.50;;;13.10;100.00
7297;BME280;40758;54.038;11.684;2023-08-06T00:18:01;100756.38;;;13.09;100.00
7297;BME280;40758;54.038;11.684;2023-08-06T00:20:27;100758.03;;;12.98;100.00
7297;BME280;40758;54.038;11.684;2023-08-06T00:22:55;100758.28;;;12.96;100.00
7297;BME280;40758;54.038;11.684;2023-08-06T00:25:22;100762.06;;;13.07;100.00
7297;BME280;40758;54.038;11.684;2023-08-06T00:27:49;100763.00;;;13.13;100.00
7297;BME280;40758;54.038;11.684;2023-08-06T00:30:16;100766.69;;;13.18;100.00
7297;BME280;40758;54.038;11.684;2023-08-06T00:32:42;100757.34;;;13.26;100.00
7297;BME280;40758;54.038;11.684;2023-08-06T00:35:09;100753.19;;;13.35;100.00
7297;BME280;40758;54.038;11.684;2023-08-06T00:37:37;100749.28;;;13.31;100.00
7297;BME280;40758;54.038;11.684;2023-08-06T00:40:05;100753.53;;;13.27;100.00
7297;BME280;40758;54.038;11.684;2023-08-06T00:42:33;100744.19;;;13.23;100.00
7297;BME280;40758;54.038;11.684;2023-08-06T00:45:01;100734.94;;;13.24;100.00
7297;BME280;40758;54.038;11.684;2023-08-06T00:47:28;100731.25;;;13.30;100.00
7297;BME280;40758;54.038;11.684;2023-08-06T00:49:55;100715.97;;;13.17;100.00
7297;BME280;40758;54.038;11.684;2023-08-06T00:52:22;100722.81;;;13.20;100.00
7297;BME280;40758;54.038;11.684;2023-08-06T00:54:49;100724.16;;;13.29;100.00
7297;BME280;40758;54.038;11.684;2023-08-06T00:57:17;100723.19;;;13.35;100.00
7297;BME280;40758;54.038;11.684;2023-08-06T00:59:44;100713.44;;;13.39;100.00
7297;BME280;40758;54.038;11.684;2023-08-06T01:02:11;100711.56;;;13.40;100.00
7297;BME280;40758;54.038;11.684;2023-08-06T01:04:41;100706.13;;;13.40;100.00
7297;BME280;40758;54.038;11.684;2023-08-06T01:13:04;100694.16;;;13.29;100.00
7297;BME280;40758;54.038;11.684;2023-08-06T01:15:41;100691.91;;;13.26;100.00
7297;BME280;40758;54.038;11.684;2023-08-06T01:18:11;100672.00;;;13.02;100.00
7297;BME280;40758;54.038;11.684;2023-08-06T01:20:38;100685.03;;;13.00;100.00
7297;BME280;40758;54.038;11.684;2023-08-06T01:23:09;100689.56;;;12.94;100.00
7297;BME280;40758;54.038;11.684;2023-08-06T01:25:45;100670.94;;;12.79;100.00
7297;BME280;40758;54.038;11.684;2023-08-06T01:28:39;100672.03;;;12.67;100.00
7297;BME280;40758;54.038;11.684;2023-08-06T01:31:13;100676.63;;;12.55;100.00
7297;BME280;40758;54.038;11.684;2023-08-06T01:33:44;100672.13;;;12.48;100.00
7297;BME280;40758;54.038;11.684;2023-08-06T01:36:12;100670.34;;;12.42;100.00
7297;BME280;40758;54.038;11.684;2023-08-06T01:38:39;100668.09;;;12.39;100.00
7297;BME280;40758;54.038;11.684;2023-08-06T01:41:06;100665.09;;;12.29;100.00
7297;BME280;40758;54.038;11.684;2023-08-06T01:43:34;100673.75;;;12.26;100.00
7297;BME280;40758;54.038;11.684;2023-08-06T01:46:01;100670.06;;;12.20;100.00
7297;BME280;40758;54.038;11.684;2023-08-06T01:48:27;100665.09;;;12.29;100.00
7297;BME280;40758;54.038;11.684;2023-08-06T01:50:55;100666.78;;;12.30;100.00
7297;BME280;40758;54.038;11.684;2023-08-06T01:53:23;100656.09;;;12.17;100.00
7297;BME280;40758;54.038;11.684;2023-08-06T01:55:52;100650.56;;;12.12;100.00
7297;BME280;40758;54.038;11.684;2023-08-06T01:58:21;100647.09;;;12.16;100.00
7297;BME280;40758;54.038;11.684;2023-08-06T02:00:48;100645.22;;;12.17;100.00
7297;BME280;40758;54.038;11.684;2023-08-06T02:03:17;100640.94;;;12.09;100.00
7297;BME280;40758;54.038;11.684;2023-08-06T02:05:44;100649.22;;;12.03;100.00
7297;BME280;40758;54.038;11.684;2023-08-06T02:08:12;100647.56;;;12.02;100.00
7297;BME280;40758;54.038;11.684;2023-08-06T02:10:38;100653.00;;;12.02;100.00
7297;BME280;40758;54.038;11.684;2023-08-06T02:13:05;100653.00;;;12.02;100.00
7297;BME280;40758;54.038;11.684;2023-08-06T02:15:32;100644.31;;;11.93;100.00
7297;BME280;40758;54.038;11.684;2023-08-06T02:18:04;100639.56;;;11.88;100.00
7297;BME280;40758;54.038;11.684;2023-08-06T02:20:34;100642.19;;;11.83;100.00
7297;BME280;40758;54.038;11.684;2023-08-06T02:23:03;100646.63;;;11.78;100.00
7297;BME280;40758;54.038;11.684;2023-08-06T02:25:30;100651.69;;;11.74;100.00
7297;BME280;40758;54.038;11.684;2023-08-06T02:27:58;100655.94;;;11.70;100.00
7297;BME280;40758;54.038;11.684;2023-08-06T02:30:26;100662.44;;;11.69;100.00
7297;BME280;40758;54.038;11.684;2023-08-06T02:32:53;100656.06;;;11.75;100.00
7297;BME280;40758;54.038;11.684;2023-08-06T02:35:20;100656.75;;;11.70;100.00
7297;BME280;40758;54.038;11.684;2023-08-06T02:37:47;100657.47;;;11.66;100.00
7297;BME280;40758;54.038;11.684;2023-08-06T02:40:13;100655.72;;;11.71;100.00
7297;BME280;40758;54.038;11.684;2023-08-06T02:42:40;100643.59;;;11.86;100.00
7297;BME280;40758;54.038;11.684;2023-08-06T02:45:09;100648.22;;;11.85;100.00
7297;BME280;40758;54.038;11.684;2023-08-06T02:47:37;100636.59;;;11.78;100.00
7297;BME280;40758;54.038;11.684;2023-08-06T02:50:06;100640.97;;;11.79;100.00
7297;BME280;40758;54.038;11.684;2023-08-06T02:52:33;100637.28;;;11.73;100.00
7297;BME280;40758;54.038;11.684;2023-08-06T02:55:00;100635.81;;;11.71;100.00
7297;BME280;40758;54.038;11.684;2023-08-06T02:57:27;100638.78;;;11.69;100.00
7297;BME280;40758;54.038;11.684;2023-08-06T02:59:54;100634.66;;;11.67;100.00
7297;BME280;40758;54.038;11.684;2023-08-06T03:02:20;100635.09;;;11.64;100.00
7297;BME280;40758;54.038;11.684;2023-08-06T03:04:47;100629.66;;;11.64;100.00
7297;BME280;40758;54.038;11.684;2023-08-06T03:07:14;100633.06;;;11.59;100.00
7297;BME280;40758;54.038;11.684;2023-08-06T03:09:40;100634.38;;;11.57;100.00
7297;BME280;40758;54.038;11.684;2023-08-06T03:12:07;100622.91;;;11.55;100.00
7297;BME280;40758;54.038;11.684;2023-08-06T03:14:36;100610.31;;;11.72;100.00
7297;BME280;40758;54.038;11.684;2023-08-06T03:17:03;100613.69;;;11.86;100.00
7297;BME280;40758;54.038;11.684;2023-08-06T03:19:32;100618.06;;;11.87;100.00
7297;BME280;40758;54.038;11.684;2023-08-06T03:22:01;100609.31;;;11.85;100.00
7297;BME280;40758;54.038;11.684;2023-08-06T03:24:27;100604.59;;;11.92;100.00
7297;BME280;40758;54.038;11.684;2023-08-06T03:26:56;100602.25;;;11.95;100.00
7297;BME280;40758;54.038;11.684;2023-08-06T03:29:23;100597.88;;;12.06;100.00
7297;BME280;40758;54.038;11.684;2023-08-06T03:31:49;100587.81;;;12.07;100.00
7297;BME280;40758;54.038;11.684;2023-08-06T03:34:21;100588.63;;;11.95;100.00
7297;BME280;40758;54.038;11.684;2023-08-06T03:36:48;100582.09;;;11.85;100.00
7297;BME280;40758;54.038;11.684;2023-08-06T03:39:16;100584.94;;;11.90;100.00
7297;BME280;40758;54.038;11.684;2023-08-06T03:41:42;100583.31;;;12.01;100.00
7297;BME280;40758;54.038;11.684;2023-08-06T03:44:09;100585.56;;;12.04;100.00
7297;BME280;40758;54.038;11.684;2023-08-06T03:46:36;100578.34;;;12.09;100.00
7297;BME280;40758;54.038;11.684;2023-08-06T03:49:03;100584.28;;;12.06;100.00
7297;BME280;40758;54.038;11.684;2023-08-06T03:51:30;100576.81;;;12.13;100.00
7297;BME280;40758;54.038;11.684;2023-08-06T03:53:57;100581.06;;;12.21;100.00
7297;BME280;40758;54.038;11.684;2023-08-06T03:56:24;100565.44;;;12.28;100.00
7297;BME280;40758;54.038;11.684;2023-08-06T03:58:51;100558.00;;;12.23;100.00
7297;BME280;40758;54.038;11.684;2023-08-06T04:01:19;100556.13;;;12.24;100.00
7297;BME280;40758;54.038;11.684;2023-08-06T04:03:46;100557.16;;;12.23;100.00
7297;BME280;40758;54.038;11.684;2023-08-06T04:06:12;100559.78;;;12.30;100.00
7297;BME280;40758;54.038;11.684;2023-08-06T04:08:39;100561.19;;;12.44;100.00
7297;BME280;40758;54.038;11.684;2023-08-06T04:11:06;100541.66;;;12.59;100.00
7297;BME280;40758;54.038;11.684;2023-08-06T04:13:33;100543.72;;;12.80;100.00
7297;BME280;40758;54.038;11.684;2023-08-06T04:16:01;100553.28;;;12.94;100.00
7297;BME280;40758;54.038;11.684;2023-08-06T04:18:29;100543.16;;;13.07;100.00
7297;BME280;40758;54.038;11.684;2023-08-06T04:20:58;100532.75;;;13.03;100.00
7297;BME280;40758;54.038;11.684;2023-08-06T04:23:25;100535.69;;;13.14;100.00
7297;BME280;40758;54.038;11.684;2023-08-06T04:25:51;100534.69;;;13.20;100.00
7297;BME280;40758;54.038;11.684;2023-08-06T04:28:19;100529.88;;;13.10;100.00
7297;BME280;40758;54.038;11.684;2023-08-06T04:30:45;100531.28;;;13.13;100.00
7297;BME280;40758;54.038;11.684;2023-08-06T04:33:12;100534.69;;;13.20;100.00
7297;BME280;40758;54.038;11.684;2023-08-06T04:35:39;100522.75;;;13.09;100.00
7297;BME280;40758;54.038;11.684;2023-08-06T04:38:08;100530.72;;;13.11;100.00
7297;BME280;40758;54.038;11.684;2023-08-06T04:40:36;100526.09;;;13.11;100.00
7297;BME280;40758;54.038;11.684;2023-08-06T04:43:02;100525.59;;;13.14;100.00
7297;BME280;40758;54.038;11.684;2023-08-06T04:45:29;100520.25;;;13.19;100.00
7297;BME280;40758;54.038;11.684;2023-08-06T04:47:56;100516.91;;;13.29;100.00
7297;BME280;40758;54.038;11.684;2023-08-06T04:50:23;100517.19;;;13.44;100.00
7297;BME280;40758;54.038;11.684;2023-08-06T04:52:50;100519.34;;;13.42;100.00
7297;BME280;40758;54.038;11.684;2023-08-06T04:55:17;100523.06;;;13.53;100.00
7297;BME280;40758;54.038;11.684;2023-08-06T04:57:43;100517.94;;;13.73;100.00
7297;BME280;40758;54.038;11.684;2023-08-06T05:00:10;100513.75;;;13.82;100.00
7297;BME280;40758;54.038;11.684;2023-08-06T05:02:37;100520.19;;;13.93;100.00
7297;BME280;40758;54.038;11.684;2023-08-06T05:05:05;100512.28;;;13.92;100.00
7297;BME280;40758;54.038;11.684;2023-08-06T05:07:32;100513.81;;;14.04;100.00
7297;BME280;40758;54.038;11.684;2023-08-06T05:09:58;100510.81;;;14.23;100.00
7297;BME280;40758;54.038;11.684;2023-08-06T05:12:25;100510.81;;;14.23;100.00
7297;BME280;40758;54.038;11.684;2023-08-06T05:14:52;100507.25;;;14.22;100.00
7297;BME280;40758;54.038;11.684;2023-08-06T05:17:20;100499.06;;;14.22;100.00
7297;BME280;40758;54.038;11.684;2023-08-06T05:19:49;100507.63;;;14.31;100.00
7297;BME280;40758;54.038;11.684;2023-08-06T05:22:16;100507.72;;;14.36;100.00
7297;BME280;40758;54.038;11.684;2023-08-06T05:24:43;100503.47;;;14.45;100.00
7297;BME280;40758;54.038;11.684;2023-08-06T05:27:09;100501.84;;;14.44;100.00
7297;BME280;40758;54.038;11.684;2023-08-06T05:29:36;100496.22;;;14.51;100.00
7297;BME280;40758;54.038;11.684;2023-08-06T05:32:05;100490.41;;;14.47;100.00
7297;BME280;40758;54.038;11.684;2023-08-06T05:34:32;100479.31;;;14.54;100.00
7297;BME280;40758;54.038;11.684;2023-08-06T05:36:59;100483.00;;;14.64;100.00
7297;BME280;40758;54.038;11.684;2023-08-06T05:39:26;100479.81;;;14.73;100.00
7297;BME280;40758;54.038;11.684;2023-08-06T05:41:53;100479.25;;;14.71;100.00
7297;BME280;40758;54.038;11.684;2023-08-06T05:44:20;100480.38;;;14.75;100.00
7297;BME280;40758;54.038;11.684;2023-08-06T05:46:47;100473.34;;;14.79;100.00
7297;BME280;40758;54.038;11.684;2023-08-06T05:49:13;100474.53;;;14.88;100.00
7297;BME280;40758;54.038;11.684;2023-08-06T05:51:41;100478.69;;;14.96;100.00
7297;BME280;40758;54.038;11.684;2023-08-06T05:54:10;100470.06;;;15.04;100.00
7297;BME280;40758;54.038;11.684;2023-08-06T05:56:36;100466.56;;;15.08;100.00
7297;BME280;40758;54.038;11.684;2023-08-06T05:59:03;100460.00;;;15.09;100.00
7297;BME280;40758;54.038;11.684;2023-08-06T06:01:30;100465.66;;;15.30;100.00
7297;BME280;40758;54.038;11.684;2023-08-06T06:03:56;100469.56;;;15.39;100.00
7297;BME280;40758;54.038;11.684;2023-08-06T06:06:23;100455.63;;;15.40;100.00
7297;BME280;40758;54.038;11.684;2023-08-06T06:08:50;100458.09;;;15.42;100.00
7297;BME280;40758;54.038;11.684;2023-08-06T06:11:17;100463.97;;;15.56;100.00
7297;BME280;40758;54.038;11.684;2023-08-06T06:13:45;100461.50;;;15.54;100.00
7297;BME280;40758;54.038;11.684;2023-08-06T06:16:12;100469.50;;;15.61;100.00
7297;BME280;40758;54.038;11.684;2023-08-06T06:18:39;100455.09;;;15.70;100.00
7297;BME280;40758;54.038;11.684;2023-08-06T06:21:06;100454.56;;;15.74;100.00
7297;BME280;40758;54.038;11.684;2023-08-06T06:23:32;100449.38;;;15.72;100.00
7297;BME280;40758;54.038;11.684;2023-08-06T06:25:59;100434.59;;;15.73;100.00
7297;BME280;40758;54.038;11.684;2023-08-06T06:28:26;100444.81;;;15.88;100.00
7297;BME280;40758;54.038;11.684;2023-08-06T06:30:52;100443.22;;;15.97;100.00
7297;BME280;40758;54.038;11.684;2023-08-06T06:33:20;100437.81;;;16.07;100.00
7297;BME280;40758;54.038;11.684;2023-08-06T06:35:48;100439.78;;;16.17;100.00
7297;BME280;40758;54.038;11.684;2023-08-06T06:38:15;100425.22;;;16.06;100.00
7297;BME280;40758;54.038;11.684;2023-08-06T06:40:42;100431.88;;;16.20;100.00
7297;BME280;40758;54.038;11.684;2023-08-06T06:43:09;100423.13;;;16.29;100.00
7297;BME280;40758;54.038;11.684;2023-08-06T06:45:36;100429.22;;;16.41;100.00
7297;BME280;40758;54.038;11.684;2023-08-06T06:48:02;100422.09;;;16.45;100.00
7297;BME280;40758;54.038;11.684;2023-08-06T06:50:29;100419.69;;;16.54;100.00
7297;BME280;40758;54.038;11.684;2023-08-06T06:52:59;100416.16;;;16.68;100.00
7297;BME280;40758;54.038;11.684;2023-08-06T06:55:25;100426.38;;;16.78;100.00
7297;BME280;40758;54.038;11.684;2023-08-06T06:57:54;100426.06;;;16.74;100.00
7297;BME280;40758;54.038;11.684;2023-08-06T07:00:21;100420.59;;;16.74;100.00
7297;BME280;40758;54.038;11.684;2023-08-06T07:02:50;100415.69;;;16.82;100.00
7297;BME280;40758;54.038;11.684;2023-08-06T07:05:17;100409.13;;;16.88;100.00
7297;BME280;40758;54.038;11.684;2023-08-06T07:07:44;100414.63;;;17.08;100.00
7297;BME280;40758;54.038;11.684;2023-08-06T07:10:10;100417.94;;;17.20;100.00
7297;BME280;40758;54.038;11.684;2023-08-06T07:12:38;100420.69;;;17.25;100.00
7297;BME280;40758;54.038;11.684;2023-08-06T07:15:09;100413.84;;;17.28;100.00
7297;BME280;40758;54.038;11.684;2023-08-06T07:17:36;100415.75;;;17.38;100.00
7297;BME280;40758;54.038;11.684;2023-08-06T07:20:03;100415.75;;;17.53;100.00
7297;BME280;40758;54.038;11.684;2023-08-06T07:22:30;100412.72;;;17.49;100.00
7297;BME280;40758;54.038;11.684;2023-08-06T07:24:57;100414.13;;;17.57;100.00
7297;BME280;40758;54.038;11.684;2023-08-06T07:27:25;100415.19;;;17.66;100.00
7297;BME280;40758;54.038;11.684;2023-08-06T07:29:51;100414.13;;;17.72;100.00
7297;BME280;40758;54.038;11.684;2023-08-06T07:32:18;100415.75;;;17.89;100.00
7297;BME280;40758;54.038;11.684;2023-08-06T07:34:47;100421.50;;;17.92;100.00
7297;BME280;40758;54.038;11.684;2023-08-06T07:37:14;100415.19;;;17.92;100.00
7297;BME280;40758;54.038;11.684;2023-08-06T07:39:41;100420.69;;;17.92;100.00
7297;BME280;40758;54.038;11.684;2023-08-06T07:42:10;100421.72;;;18.21;100.00
7297;BME280;40758;54.038;11.684;2023-08-06T07:44:37;100414.50;;;18.30;100.00
7297;BME280;40758;54.038;11.684;2023-08-06T07:47:06;100404.88;;;18.38;100.00
7297;BME280;40758;54.038;11.684;2023-08-06T07:49:33;100410.91;;;18.45;100.00
7297;BME280;40758;54.038;11.684;2023-08-06T07:52:00;100415.00;;;18.48;100.00
7297;BME280;40758;54.038;11.684;2023-08-06T07:54:26;100414.44;;;18.51;100.00
7297;BME280;40758;54.038;11.684;2023-08-06T07:56:55;100413.03;;;18.53;100.00
7297;BME280;40758;54.038;11.684;2023-08-06T07:59:22;100406.41;;;18.70;100.00
7297;BME280;40758;54.038;11.684;2023-08-06T08:01:49;100405.88;;;18.63;100.00
7297;BME280;40758;54.038;11.684;2023-08-06T08:04:16;100415.31;;;18.96;100.00
7297;BME280;40758;54.038;11.684;2023-08-06T08:06:42;100418.31;;;18.99;100.00
7297;BME280;40758;54.038;11.684;2023-08-06T08:09:09;100416.44;;;18.90;100.00
7297;BME280;40758;54.038;11.684;2023-08-06T08:11:36;100408.25;;;18.84;100.00
7297;BME280;40758;54.038;11.684;2023-08-06T08:14:03;100416.09;;;19.01;100.00
7297;BME280;40758;54.038;11.684;2023-08-06T08:16:29;100416.50;;;18.84;100.00
7297;BME280;40758;54.038;11.684;2023-08-06T08:18:56;100411.53;;;18.86;100.00
7297;BME280;40758;54.038;11.684;2023-08-06T08:21:23;100418.69;;;18.82;100.00
7297;BME280;40758;54.038;11.684;2023-08-06T08:23:52;100410.72;;;18.86;100.00
7297;BME280;40758;54.038;11.684;2023-08-06T08:26:19;100415.09;;;18.87;100.00
7297;BME280;40758;54.038;11.684;2023-08-06T08:28:46;100411.59;;;18.76;100.00
7297;BME280;40758;54.038;11.684;2023-08-06T08:31:13;100414.31;;;18.81;100.00
7297;BME280;40758;54.038;11.684;2023-08-06T08:33:40;100406.69;;;18.63;100.00
7297;BME280;40758;54.038;11.684;2023-08-06T08:36:07;100414.31;;;18.81;100.00
7297;BME280;40758;54.038;11.684;2023-08-06T08:38:36;100408.28;;;18.79;100.00
7297;BME280;40758;54.038;11.684;2023-08-06T08:41:03;100408.00;;;18.81;100.00
7297;BME280;40758;54.038;11.684;2023-08-06T08:43:30;100401.06;;;18.88;100.00
7297;BME280;40758;54.038;11.684;2023-08-06T08:45:57;100402.88;;;19.08;100.00
7297;BME280;40758;54.038;11.684;2023-08-06T08:48:25;100403.09;;;19.12;100.00
7297;BME280;40758;54.038;11.684;2023-08-06T08:50:53;100407.13;;;19.25;100.00
7297;BME280;40758;54.038;11.684;2023-08-06T08:53:21;100397.78;;;19.26;100.00
7297;BME280;40758;54.038;11.684;2023-08-06T08:55:49;100393.72;;;19.13;100.00
7297;BME280;40758;54.038;11.684;2023-08-06T08:58:16;100394.97;;;18.97;100.00
7297;BME280;40758;54.038;11.684;2023-08-06T09:00:45;100390.44;;;19.11;100.00
7297;BME280;40758;54.038;11.684;2023-08-06T09:03:12;100395.34;;;19.19;100.00
7297;BME280;40758;54.038;11.684;2023-08-06T09:05:44;100392.56;;;19.19;100.00
7297;BME280;40758;54.038;11.684;2023-08-06T09:08:15;100395.19;;;19.39;100.00
7297;BME280;40758;54.038;11.684;2023-08-06T09:10:44;100391.13;;;19.32;100.00
7297;BME280;40758;54.038;11.684;2023-08-06T09:13:14;100396.78;;;19.46;100.00
7297;BME280;40758;54.038;11.684;2023-08-06T09:15:41;100386.19;;;19.63;100.00
7297;BME280;40758;54.038;11.684;2023-08-06T09:18:11;100387.25;;;19.67;100.00
7297;BME280;40758;54.038;11.684;2023-08-06T09:20:39;100374.25;;;19.73;100.00
7297;BME280;40758;54.038;11.684;2023-08-06T09:23:09;100376.25;;;19.67;100.00
7297;BME280;40758;54.038;11.684;2023-08-06T09:25:40;100386.22;;;19.87;100.00
7297;BME280;40758;54.038;11.684;2023-08-06T09:28:09;100378.19;;;19.90;100.00
7297;BME280;40758;54.038;11.684;2023-08-06T09:30:37;100377.19;;;19.81;100.00
7297;BME280;40758;54.038;11.684;2023-08-06T09:33:17;100371.69;;;19.81;100.00
7297;BME280;40758;54.038;11.684;2023-08-06T09:35:46;100368.06;;;19.86;100.00
7297;BME280;40758;54.038;11.684;2023-08-06T09:38:13;100368.72;;;20.02;100.00
7297;BME280;40758;54.038;11.684;2023-08-06T09:40:40;100374.28;;;19.97;100.00
7297;BME280;40758;54.038;11.684;2023-08-06T09:43:07;100371.81;;;19.95;100.00
7297;BME280;40758;54.038;11.684;2023-08-06T09:45:36;100366.13;;;19.86;100.00
7297;BME280;40758;54.038;11.684;2023-08-06T09:48:06;100367.94;;;19.96;100.00
7297;BME280;40758;54.038;11.684;2023-08-06T09:50:36;100371.00;;;19.95;100.00
7297;BME280;40758;54.038;11.684;2023-08-06T09:53:04;100367.69;;;19.92;100.00
7297;BME280;40758;54.038;11.684;2023-08-06T09:55:33;100365.53;;;19.89;100.00
7297;BME280;40758;54.038;11.684;2023-08-06T09:58:00;100356.78;;;19.82;100.00
7297;BME280;40758;54.038;11.684;2023-08-06T10:00:27;100354.56;;;19.84;100.00
7297;BME280;40758;54.038;11.684;2023-08-06T10:02:55;100361.13;;;19.88;100.00
7297;BME280;40758;54.038;11.684;2023-08-06T10:05:26;100358.19;;;19.80;100.00
7297;BME280;40758;54.038;11.684;2023-08-06T10:07:57;100361.50;;;19.48;100.00
7297;BME280;40758;54.038;11.684;2023-08-06T10:10:25;100358.44;;;19.25;100.00
7297;BME280;40758;54.038;11.684;2023-08-06T10:12:58;100358.16;;;19.56;100.00
7297;BME280;40758;54.038;11.684;2023-08-06T10:15:27;100351.47;;;19.67;100.00
7297;BME280;40758;54.038;11.684;2023-08-06T10:17:56;100351.50;;;19.62;100.00
7297;BME280;40758;54.038;11.684;2023-08-06T10:20:25;100352.34;;;19.86;100.00
7297;BME280;40758;54.038;11.684;2023-08-06T10:23:06;100350.69;;;19.85;100.00
7297;BME280;40758;54.038;11.684;2023-08-06T10:25:40;100350.75;;;19.80;100.00
7297;BME280;40758;54.038;11.684;2023-08-06T10:28:09;100342.25;;;19.77;100.00
7297;BME280;40758;54.038;11.684;2023-08-06T10:30:46;100348.09;;;19.70;100.00
7297;BME280;40758;54.038;11.684;2023-08-06T10:33:13;100337.09;;;19.70;100.00
7297;BME280;40758;54.038;11.684;2023-08-06T10:35:45;100333.50;;;19.70;100.00
7297;BME280;40758;54.038;11.684;2023-08-06T10:38:19;100336.56;;;19.68;100.00
7297;BME280;40758;54.038;11.684;2023-08-06T10:43:28;100327.22;;;19.64;100.00
7297;BME280;40758;54.038;11.684;2023-08-06T10:45:59;100331.38;;;19.90;100.00
7297;BME280;40758;54.038;11.684;2023-08-06T10:48:39;100321.72;;;19.64;100.00
7297;BME280;40758;54.038;11.684;2023-08-06T10:51:13;100333.34;;;19.61;100.00
7297;BME280;40758;54.038;11.684;2023-08-06T10:53:44;100332.63;;;19.45;100.00
7297;BME280;40758;54.038;11.684;2023-08-06T10:58:43;100323.56;;;19.45;100.00
7297;BME280;40758;54.038;11.684;2023-08-06T11:01:11;100322.03;;;19.62;100.00
7297;BME280;40758;54.038;11.684;2023-08-06T11:03:38;100319.94;;;19.49;100.00
7297;BME280;40758;54.038;11.684;2023-08-06T11:06:09;100320.84;;;19.39;100.00
7297;BME280;40758;54.038;11.684;2023-08-06T11:08:40;100323.25;;;19.17;100.00
7297;BME280;40758;54.038;11.684;2023-08-06T11:11:11;100313.81;;;19.28;100.00
7297;BME280;40758;54.038;11.684;2023-08-06T11:13:44;100315.78;;;19.23;100.00
7297;BME280;40758;54.038;11.684;2023-08-06T11:16:14;100308.50;;;19.08;100.00
7297;BME280;40758;54.038;11.684;2023-08-06T11:18:41;100309.31;;;19.08;100.00
7297;BME280;40758;54.038;11.684;2023-08-06T11:21:09;100309.00;;;19.10;100.00
7297;BME280;40758;54.038;11.684;2023-08-06T11:23:35;100311.50;;;19.06;100.00
7297;BME280;40758;54.038;11.684;2023-08-06T11:26:02;100311.16;;;19.13;100.00
7297;BME280;40758;54.038;11.684;2023-08-06T11:28:29;100305.66;;;19.13;100.00
7297;BME280;40758;54.038;11.684;2023-08-06T11:30:57;100301.84;;;19.14;100.00
7297;BME280;40758;54.038;11.684;2023-08-06T11:33:28;100305.78;;;19.03;100.00
7297;BME280;40758;54.038;11.684;2023-08-06T11:35:56;100303.09;;;19.27;100.00
7297;BME280;40758;54.038;11.684;2023-08-06T11:38:28;100306.41;;;19.24;100.00
7297;BME280;40758;54.038;11.684;2023-08-06T11:40:55;100303.16;;;19.46;100.00
7297;BME280;40758;54.038;11.684;2023-08-06T11:43:22;100307.91;;;19.40;100.00
7297;BME280;40758;54.038;11.684;2023-08-06T11:45:50;100304.50;;;19.19;100.00
7297;BME280;40758;54.038;11.684;2023-08-06T11:48:21;100298.81;;;19.10;100.00
7297;BME280;40758;54.038;11.684;2023-08-06T11:50:48;100289.16;;;19.13;100.00
7297;BME280;40758;54.038;11.684;2023-08-06T11:53:15;100289.75;;;19.10;100.00
7297;BME280;40758;54.038;11.684;2023-08-06T11:55:42;100287.34;;;19.03;100.00
7297;BME280;40758;54.038;11.684;2023-08-06T11:58:09;100288.06;;;19.14;100.00
7297;BME280;40758;54.038;11.684;2023-08-06T12:00:38;100285.81;;;19.21;100.00
7297;BME280;40758;54.038;11.684;2023-08-06T12:03:09;100282.00;;;19.41;100.00
7297;BME280;40758;54.038;11.684;2023-08-06T12:05:37;100276.09;;;19.53;100.00
7297;BME280;40758;54.038;11.684;2023-08-06T12:08:05;100270.47;;;19.68;100.00
7297;BME280;40758;54.038;11.684;2023-08-06T12:10:32;100273.03;;;19.59;100.00
7297;BME280;40758;54.038;11.684;2023-08-06T12:13:00;100266.94;;;19.62;100.00
7297;BME280;40758;54.038;11.684;2023-08-06T12:15:26;100267.78;;;19.58;100.00
7297;BME280;40758;54.038;11.684;2023-08-06T12:17:54;100261.75;;;19.61;100.00
7297;BME280;40758;54.038;11.684;2023-08-06T12:20:21;100265.31;;;19.85;100.00
7297;BME280;40758;54.038;11.684;2023-08-06T12:22:48;100261.91;;;19.70;100.00
7297;BME280;40758;54.038;11.684;2023-08-06T12:25:15;100255.28;;;19.95;100.00
7297;BME280;40758;54.038;11.684;2023-08-06T12:27:43;100260.97;;;19.79;100.00
7297;BME280;40758;54.038;11.684;2023-08-06T12:30:12;100255.72;;;20.02;100.00
7297;BME280;40758;54.038;11.684;2023-08-06T12:32:40;100257.75;;;20.15;100.00
7297;BME280;40758;54.038;11.684;2023-08-06T12:35:07;100257.16;;;20.18;100.00
7297;BME280;40758;54.038;11.684;2023-08-06T12:37:35;100239.56;;;20.14;100.00
7297;BME280;40758;54.038;11.684;2023-08-06T12:40:02;100239.56;;;20.14;100.00
7297;BME280;40758;54.038;11.684;2023-08-06T12:42:53;100246.41;;;19.98;100.00
7297;BME280;40758;54.038;11.684;2023-08-06T12:45:20;100236.50;;;20.15;100.00
7297;BME280;40758;54.038;11.684;2023-08-06T12:47:48;100230.94;;;20.20;100.00
7297;BME280;40758;54.038;11.684;2023-08-06T12:50:16;100229.72;;;19.89;100.00
7297;BME280;40758;54.038;11.684;2023-08-06T12:52:44;100230.06;;;19.82;100.00
7297;BME280;40758;54.038;11.684;2023-08-06T12:55:10;100228.53;;;19.95;100.00